createdAt,value
2019-04-07T00:01:14.577Z,12.57
2019-04-07T00:03:45.470Z,14.00
2019-04-07T00:06:15.980Z,17.67
2019-04-07T00:08:46.639Z,12.30
2019-04-07T00:11:17.495Z,14.80
2019-04-07T00:13:48.374Z,13.93
2019-04-07T00:16:18.952Z,17.40
2019-04-07T00:18:49.600Z,12.67
2019-04-07T00:21:20.770Z,13.73
2019-04-07T00:23:51.444Z,14.13
2019-04-07T00:26:22.551Z,17.00
2019-04-07T00:28:53.466Z,15.07
2019-04-07T00:31:24.027Z,11.90
2019-04-07T00:33:54.654Z,13.60
2019-04-07T00:36:26.612Z,12.07
2019-04-07T00:38:58.388Z,17.17
2019-04-07T00:41:28.962Z,13.43
2019-04-07T00:44:00.002Z,15.50
2019-04-07T00:46:30.821Z,20.73
2019-04-07T00:49:01.396Z,14.83
2019-04-07T00:51:32.056Z,13.37
2019-04-07T00:54:02.755Z,13.10
2019-04-07T00:56:33.669Z,15.63
2019-04-07T00:59:10.024Z,11.47
2019-04-07T01:01:39.926Z,13.30
2019-04-07T01:04:11.100Z,12.93
2019-04-07T01:06:42.203Z,17.80
2019-04-07T01:09:13.360Z,11.97
2019-04-07T01:11:44.265Z,12.70
2019-04-07T01:14:18.069Z,16.37
2019-04-07T01:16:48.968Z,11.87
2019-04-07T01:19:20.021Z,14.20
2019-04-07T01:21:51.159Z,20.63
2019-04-07T01:24:22.627Z,16.90
2019-04-07T01:26:53.767Z,11.70
2019-04-07T01:29:24.504Z,9.73
2019-04-07T01:31:55.051Z,11.93
2019-04-07T01:34:26.234Z,11.73
2019-04-07T01:36:56.935Z,10.27
2019-04-07T01:39:29.579Z,10.47
2019-04-07T01:42:22.179Z,18.47
2019-04-07T01:45:10.515Z,13.33
2019-04-07T01:47:54.094Z,11.87
2019-04-07T01:50:33.091Z,13.33
2019-04-07T01:53:28.998Z,12.07
2019-04-07T01:56:08.369Z,14.10
2019-04-07T01:58:48.349Z,10.80
2019-04-07T02:01:58.229Z,12.17
2019-04-07T02:04:56.517Z,11.60
2019-04-07T02:07:34.015Z,8.93
2019-04-07T02:10:34.086Z,14.47
2019-04-07T02:13:25.305Z,18.70
2019-04-07T02:16:04.947Z,14.93
2019-04-07T02:18:54.411Z,18.73
2019-04-07T02:21:32.770Z,11.37
2019-04-07T02:24:12.867Z,11.13
2019-04-07T02:26:48.883Z,13.70
2019-04-07T02:29:29.160Z,10.07
2019-04-07T02:32:16.069Z,18.03
2019-04-07T02:34:59.921Z,12.93
2019-04-07T02:37:37.207Z,11.33
2019-04-07T02:40:28.453Z,12.20
2019-04-07T02:43:21.580Z,14.20
2019-04-07T02:46:09.678Z,11.77
2019-04-07T02:48:59.185Z,12.37
2019-04-07T02:51:47.828Z,12.00
2019-04-07T02:54:37.946Z,10.27
2019-04-07T02:57:30.276Z,12.70
2019-04-07T03:00:29.672Z,12.60
2019-04-07T03:03:16.942Z,15.80
2019-04-07T03:06:06.937Z,11.77
2019-04-07T03:08:45.391Z,13.30
2019-04-07T03:11:44.594Z,14.50
2019-04-07T03:14:26.193Z,11.17
2019-04-07T03:17:16.011Z,11.13
2019-04-07T03:19:56.156Z,12.57
2019-04-07T03:22:45.872Z,11.20
2019-04-07T03:25:34.352Z,12.70
2019-04-07T03:28:39.923Z,20.53
2019-04-07T03:31:32.801Z,9.53
2019-04-07T03:34:20.409Z,14.60
2019-04-07T03:37:21.812Z,11.00
2019-04-07T03:40:00.807Z,16.10
2019-04-07T03:43:05.406Z,12.97
2019-04-07T03:45:55.074Z,11.47
2019-04-07T03:48:38.029Z,14.67
2019-04-07T03:51:26.564Z,18.20
2019-04-07T03:54:15.450Z,14.97
2019-04-07T03:57:16.438Z,15.47
2019-04-07T03:59:58.162Z,12.90
2019-04-07T04:02:53.554Z,16.63
2019-04-07T04:05:45.145Z,12.53
2019-04-07T04:08:38.245Z,13.10
2019-04-07T04:11:21.136Z,11.47
2019-04-07T04:14:29.531Z,15.37
2019-04-07T04:17:00.228Z,19.63
2019-04-07T04:19:30.802Z,12.90
2019-04-07T04:22:02.083Z,13.67
2019-04-07T04:24:33.618Z,12.63
2019-04-07T04:27:04.628Z,13.30
2019-04-07T04:29:35.307Z,15.07
2019-04-07T04:32:06.035Z,13.97
2019-04-07T04:34:36.828Z,15.57
2019-04-07T04:37:08.039Z,13.93
2019-04-07T04:39:38.891Z,12.70
2019-04-07T04:42:09.405Z,16.10
2019-04-07T04:44:40.544Z,13.90
2019-04-07T04:47:11.174Z,15.07
2019-04-07T04:49:41.844Z,12.97
2019-04-07T04:52:12.417Z,13.20
2019-04-07T04:54:42.989Z,13.10
2019-04-07T04:57:14.312Z,47.20
2019-04-07T04:59:45.066Z,13.50
2019-04-07T05:02:15.996Z,12.03
2019-04-07T05:04:47.112Z,17.50
2019-04-07T05:07:17.709Z,17.43
2019-04-07T05:09:53.281Z,23.33
2019-04-07T05:12:24.350Z,14.77
2019-04-07T05:14:55.060Z,17.40
2019-04-07T05:17:26.055Z,14.87
2019-04-07T05:19:57.657Z,20.33
2019-04-07T05:22:29.027Z,15.13
2019-04-07T05:24:59.701Z,14.77
2019-04-07T05:27:30.324Z,14.50
2019-04-07T05:30:01.301Z,14.40
2019-04-07T05:32:32.182Z,19.00
2019-04-07T05:35:04.421Z,17.70
2019-04-07T05:37:34.936Z,14.23
2019-04-07T05:40:06.009Z,15.20
2019-04-07T05:42:36.587Z,13.90
2019-04-07T05:45:08.259Z,17.53
2019-04-07T05:47:43.619Z,15.23
2019-04-07T05:50:11.310Z,16.63
2019-04-07T05:52:42.203Z,13.93
2019-04-07T05:55:13.181Z,15.73
2019-04-07T05:57:44.214Z,19.53
2019-04-07T06:00:16.724Z,18.10
2019-04-07T06:02:48.205Z,23.27
2019-04-07T06:05:19.507Z,18.93
2019-04-07T06:07:52.631Z,14.97
2019-04-07T06:10:27.624Z,16.00
2019-04-07T06:12:56.442Z,15.70
2019-04-07T06:15:27.358Z,20.07
2019-04-07T06:18:00.556Z,16.10
2019-04-07T06:20:30.315Z,23.77
2019-04-07T06:23:01.934Z,16.23
2019-04-07T06:25:37.831Z,21.00
2019-04-07T06:28:05.463Z,17.30
2019-04-07T06:30:36.975Z,21.00
2019-04-07T06:33:08.905Z,15.70
2019-04-07T06:35:41.859Z,20.33
2019-04-07T06:38:14.420Z,32.43
2019-04-07T06:40:45.923Z,19.47
2019-04-07T06:43:17.031Z,14.60
2019-04-07T06:46:10.615Z,17.20
2019-04-07T06:49:00.661Z,19.57
2019-04-07T06:51:53.266Z,17.03
2019-04-07T06:54:46.025Z,17.20
2019-04-07T06:57:49.176Z,15.97
2019-04-07T07:00:38.847Z,17.27
2019-04-07T07:03:46.626Z,16.20
2019-04-07T07:06:34.774Z,21.03
2019-04-07T07:09:19.194Z,18.00
2019-04-07T07:12:19.191Z,17.57
2019-04-07T07:15:04.316Z,21.87
2019-04-07T07:17:48.619Z,19.40
2019-04-07T07:20:58.056Z,16.30
2019-04-07T07:23:32.250Z,19.63
2019-04-07T07:26:03.518Z,15.50
2019-04-07T07:28:34.882Z,15.00
2019-04-07T07:31:05.514Z,20.00
2019-04-07T07:33:38.389Z,17.43
2019-04-07T07:36:12.252Z,17.83
2019-04-07T07:38:55.428Z,17.73
2019-04-07T07:41:19.209Z,16.27
2019-04-07T07:43:48.192Z,15.47
2019-04-07T07:46:21.857Z,17.47
2019-04-07T07:48:56.157Z,18.40
2019-04-07T07:51:24.805Z,16.20
2019-04-07T07:53:58.580Z,14.97
2019-04-07T07:56:29.090Z,16.53
2019-04-07T07:59:01.493Z,16.87
2019-04-07T08:01:32.245Z,12.90
2019-04-07T08:04:03.569Z,13.53
2019-04-07T08:06:34.665Z,17.60
2019-04-07T08:09:13.805Z,15.50
2019-04-07T08:11:42.407Z,20.13
2019-04-07T08:14:16.610Z,13.60
2019-04-07T08:16:45.583Z,17.50
2019-04-07T08:19:16.781Z,16.50
2019-04-07T08:21:50.302Z,13.83
2019-04-07T08:24:21.829Z,16.23
2019-04-07T08:26:56.307Z,14.43
2019-04-07T08:29:24.791Z,14.60
2019-04-07T08:31:55.538Z,17.00
2019-04-07T08:34:26.529Z,15.90
2019-04-07T08:36:57.479Z,17.17
2019-04-07T08:39:32.347Z,13.73
2019-04-07T08:42:01.143Z,14.63
2019-04-07T08:44:31.931Z,18.60
2019-04-07T08:47:02.658Z,14.20
2019-04-07T08:49:34.532Z,13.37
2019-04-07T08:52:09.069Z,13.60
2019-04-07T08:54:38.007Z,15.23
2019-04-07T08:57:09.604Z,14.93
2019-04-07T08:59:42.375Z,21.60
2019-04-07T09:02:12.538Z,14.40
2019-04-07T09:04:47.319Z,13.90
2019-04-07T09:07:15.533Z,15.30
2019-04-07T09:09:47.812Z,15.50
2019-04-07T09:12:18.693Z,15.57
2019-04-07T09:14:50.195Z,13.50
2019-04-07T09:17:44.597Z,12.40
2019-04-07T09:20:29.336Z,16.60
2019-04-07T09:23:09.188Z,14.20
2019-04-07T09:25:57.354Z,15.67
2019-04-07T09:28:39.449Z,16.90
2019-04-07T09:31:41.055Z,15.20
2019-04-07T09:34:30.559Z,16.10
2019-04-07T09:37:08.085Z,23.93
2019-04-07T09:40:10.436Z,17.33
2019-04-07T09:43:00.996Z,15.10
2019-04-07T09:45:59.472Z,16.70
2019-04-07T09:48:50.940Z,18.77
2019-04-07T09:51:40.378Z,18.00
2019-04-07T09:54:44.436Z,18.17
2019-04-07T09:57:38.724Z,17.70
2019-04-07T10:00:23.237Z,16.73
2019-04-07T10:03:24.791Z,20.60
2019-04-07T10:06:23.097Z,18.03
2019-04-07T10:09:15.795Z,21.50
2019-04-07T10:11:53.014Z,19.53
2019-04-07T10:14:42.861Z,18.80
2019-04-07T10:17:35.426Z,19.37
2019-04-07T10:20:28.653Z,16.60
2019-04-07T10:23:18.102Z,20.37
2019-04-07T10:26:01.265Z,19.10
2019-04-07T10:28:40.066Z,16.37
2019-04-07T10:31:26.000Z,46.17
2019-04-07T10:34:18.667Z,19.40
2019-04-07T10:37:04.946Z,23.70
2019-04-07T10:39:57.371Z,21.60
2019-04-07T10:42:46.019Z,22.17
2019-04-07T10:45:35.072Z,19.93
2019-04-07T10:48:24.366Z,18.87
2019-04-07T10:51:01.958Z,20.47
2019-04-07T10:53:37.915Z,27.53
2019-04-07T10:56:22.324Z,25.87
2019-04-07T10:59:18.812Z,21.53
2019-04-07T11:02:11.933Z,18.20
2019-04-07T11:05:00.647Z,18.27
2019-04-07T11:07:42.006Z,15.80
2019-04-07T11:10:37.328Z,13.90
2019-04-07T11:13:19.974Z,17.73
2019-04-07T11:16:13.331Z,21.70
2019-04-07T11:19:01.979Z,17.00
2019-04-07T11:22:04.556Z,14.60
2019-04-07T11:24:44.399Z,21.33
2019-04-07T11:27:32.942Z,15.97
2019-04-07T11:30:22.509Z,16.17
2019-04-07T11:33:20.926Z,13.70
2019-04-07T11:36:06.023Z,15.57
2019-04-07T11:38:51.645Z,14.63
2019-04-07T11:41:48.265Z,16.03
2019-04-07T11:44:41.131Z,15.07
2019-04-07T11:47:24.023Z,16.13
2019-04-07T11:50:14.563Z,15.90
2019-04-07T11:53:12.341Z,13.93
2019-04-07T11:56:13.977Z,15.10
2019-04-07T11:59:00.686Z,20.77
2019-04-07T12:01:50.979Z,16.27
2019-04-07T12:04:46.890Z,15.03
2019-04-07T12:07:36.693Z,16.90
2019-04-07T12:10:25.770Z,13.80
2019-04-07T12:13:22.083Z,13.93
2019-04-07T12:16:18.461Z,16.80
2019-04-07T12:19:02.372Z,14.57
2019-04-07T12:21:55.911Z,14.07
2019-04-07T12:24:36.159Z,14.73
2019-04-07T12:27:35.717Z,15.37
2019-04-07T12:30:25.237Z,15.87
2019-04-07T12:33:18.000Z,16.40
2019-04-07T12:36:14.069Z,15.00
2019-04-07T12:39:07.195Z,13.50
2019-04-07T12:41:59.555Z,15.03
2019-04-07T12:44:38.386Z,16.00
2019-04-07T12:47:18.170Z,16.50
2019-04-07T12:50:17.402Z,14.40
2019-04-07T12:53:16.582Z,16.17
2019-04-07T12:55:57.957Z,16.00
2019-04-07T12:58:48.539Z,13.60
2019-04-07T13:01:56.446Z,17.53
2019-04-07T13:04:36.461Z,16.67
2019-04-07T13:07:29.078Z,18.30
2019-04-07T13:10:10.541Z,18.27
2019-04-07T13:13:09.097Z,16.60
2019-04-07T13:15:50.962Z,20.93
2019-04-07T13:18:39.488Z,21.90
2019-04-07T13:21:32.992Z,21.93
2019-04-07T13:24:30.235Z,20.80
2019-04-07T13:26:59.905Z,18.73
2019-04-07T13:29:56.736Z,16.20
2019-04-07T13:32:43.849Z,20.97
2019-04-07T13:35:34.714Z,18.73
2019-04-07T13:38:20.802Z,17.10
2019-04-07T13:41:10.454Z,20.90
2019-04-07T13:44:07.146Z,17.50
2019-04-07T13:46:46.885Z,16.47
2019-04-07T13:49:29.013Z,16.73
2019-04-07T13:52:24.667Z,17.93
2019-04-07T13:55:05.158Z,15.13
2019-04-07T13:57:59.489Z,20.57
2019-04-07T14:00:55.805Z,14.97
2019-04-07T14:03:48.132Z,15.37
2019-04-07T14:06:37.321Z,19.53
2019-04-07T14:09:31.460Z,18.73
2019-04-07T14:12:23.874Z,16.63
2019-04-07T14:15:01.895Z,17.00
2019-04-07T14:17:43.813Z,14.47
2019-04-07T14:20:24.715Z,18.83
2019-04-07T14:23:02.136Z,16.73
2019-04-07T14:25:52.737Z,14.67
2019-04-07T14:28:45.706Z,16.27
2019-04-07T14:31:33.610Z,17.87
2019-04-07T14:34:38.056Z,18.83
2019-04-07T14:37:30.812Z,18.17
2019-04-07T14:40:25.808Z,16.03
2019-04-07T14:43:13.643Z,15.77
2019-04-07T14:45:50.402Z,18.53
2019-04-07T14:48:37.665Z,31.40
2019-04-07T14:51:25.822Z,20.27
2019-04-07T14:54:14.004Z,22.50
2019-04-07T14:57:03.212Z,24.63
2019-04-07T15:00:05.323Z,23.07
2019-04-07T15:02:36.525Z,27.47
2019-04-07T15:05:15.964Z,23.27
2019-04-07T15:07:57.875Z,27.10
2019-04-07T15:10:39.784Z,25.37
2019-04-07T15:13:15.980Z,27.10
2019-04-07T15:15:45.748Z,26.43
2019-04-07T15:18:16.519Z,29.33
2019-04-07T15:20:47.340Z,27.63
2019-04-07T15:23:18.681Z,29.87
2019-04-07T15:25:50.337Z,27.87
2019-04-07T15:28:21.534Z,28.97
2019-04-07T15:30:52.998Z,29.30
2019-04-07T15:33:24.259Z,26.47
2019-04-07T15:35:54.895Z,23.83
2019-04-07T15:38:27.196Z,28.10
2019-04-07T15:40:59.808Z,24.70
2019-04-07T15:43:33.301Z,27.33
2019-04-07T15:46:03.300Z,24.10
2019-04-07T15:48:34.071Z,26.17
2019-04-07T15:51:05.130Z,28.93
2019-04-07T15:53:40.352Z,27.47
2019-04-07T15:56:12.975Z,26.37
2019-04-07T15:58:42.644Z,29.87
2019-04-07T16:01:16.092Z,24.30
2019-04-07T16:03:50.496Z,27.57
2019-04-07T16:06:19.538Z,26.10
2019-04-07T16:08:51.131Z,28.60
2019-04-07T16:11:25.668Z,27.70
2019-04-07T16:13:55.167Z,25.73
2019-04-07T16:16:28.478Z,23.07
2019-04-07T16:18:58.141Z,31.97
2019-04-07T16:21:30.460Z,21.50
2019-04-07T16:24:01.134Z,29.07
2019-04-07T16:26:35.876Z,23.33
2019-04-07T16:29:08.134Z,25.60
2019-04-07T16:31:39.055Z,26.80
2019-04-07T16:34:11.550Z,25.20
2019-04-07T16:36:42.147Z,23.50
2019-04-07T16:39:13.633Z,25.17
2019-04-07T16:41:45.881Z,23.77
2019-04-07T16:44:17.021Z,23.70
2019-04-07T16:46:47.638Z,21.23
2019-04-07T16:49:19.377Z,18.17
2019-04-07T16:51:51.455Z,20.90
2019-04-07T16:54:22.174Z,19.20
2019-04-07T16:56:56.134Z,17.50
2019-04-07T16:59:25.363Z,20.67
2019-04-07T17:01:57.000Z,19.20
2019-04-07T17:04:28.653Z,20.03
2019-04-07T17:07:04.100Z,19.90
2019-04-07T17:09:34.103Z,19.60
2019-04-07T17:12:04.023Z,22.33
2019-04-07T17:14:36.129Z,20.13
2019-04-07T17:17:07.040Z,25.27
2019-04-07T17:19:40.461Z,23.13
2019-04-07T17:22:16.029Z,24.23
2019-04-07T17:24:47.828Z,24.50
2019-04-07T17:27:26.056Z,33.37
2019-04-07T17:29:56.867Z,25.10
2019-04-07T17:32:28.502Z,26.13
2019-04-07T17:35:00.880Z,21.47
2019-04-07T17:37:31.958Z,19.10
2019-04-07T17:40:13.129Z,24.70
2019-04-07T17:42:42.773Z,26.20
2019-04-07T17:45:35.379Z,19.50
2019-04-07T17:48:52.805Z,23.20
2019-04-07T17:51:28.687Z,24.90
2019-04-07T17:54:22.801Z,23.17
2019-04-07T17:57:01.311Z,20.50
2019-04-07T17:59:59.120Z,20.40
2019-04-07T18:03:06.087Z,32.80
2019-04-07T18:05:47.012Z,29.93
2019-04-07T18:08:33.128Z,30.87
2019-04-07T18:11:18.974Z,19.93
2019-04-07T18:14:08.507Z,23.60
2019-04-07T18:16:54.769Z,24.57
2019-04-07T18:19:43.199Z,28.03
2019-04-07T18:22:35.898Z,24.63
2019-04-07T18:25:26.213Z,20.97
2019-04-07T18:28:11.023Z,21.67
2019-04-07T18:31:03.083Z,29.07
2019-04-07T18:33:55.011Z,21.83
2019-04-07T18:36:40.584Z,22.57
2019-04-07T18:39:27.892Z,23.03
2019-04-07T18:42:10.709Z,28.43
2019-04-07T18:44:59.553Z,25.03
2019-04-07T18:47:59.284Z,28.23
2019-04-07T18:51:01.022Z,21.17
2019-04-07T18:53:50.574Z,28.53
2019-04-07T18:56:40.350Z,24.67
2019-04-07T18:59:22.261Z,22.73
2019-04-07T19:02:13.159Z,25.77
2019-04-07T19:05:08.166Z,28.80
2019-04-07T19:07:47.191Z,26.50
2019-04-07T19:10:35.590Z,32.00
2019-04-07T19:13:23.536Z,25.40
2019-04-07T19:16:11.072Z,20.20
2019-04-07T19:18:52.628Z,27.20
2019-04-07T19:21:38.499Z,25.47
2019-04-07T19:24:35.338Z,25.37
2019-04-07T19:27:42.670Z,23.47
2019-04-07T19:30:43.289Z,25.97
2019-04-07T19:33:49.410Z,27.50
2019-04-07T19:36:46.595Z,30.53
2019-04-07T19:39:37.256Z,30.07
2019-04-07T19:42:39.937Z,21.40
2019-04-07T19:45:37.047Z,23.13
2019-04-07T19:48:25.429Z,40.50
2019-04-07T19:51:22.655Z,22.57
2019-04-07T19:54:13.538Z,27.73
2019-04-07T19:57:05.135Z,25.90
2019-04-07T19:59:54.998Z,26.07
2019-04-07T20:02:35.943Z,24.90
2019-04-07T20:05:28.883Z,24.77
2019-04-07T20:08:32.440Z,28.67
2019-04-07T20:11:27.713Z,27.13
2019-04-07T20:14:26.282Z,27.23
2019-04-07T20:17:19.724Z,24.77
2019-04-07T20:20:14.312Z,26.43
2019-04-07T20:23:02.171Z,27.23
2019-04-07T20:26:10.203Z,23.27
2019-04-07T20:29:06.537Z,24.33
2019-04-07T20:32:00.576Z,22.60
2019-04-07T20:34:48.632Z,24.43
2019-04-07T20:37:37.860Z,21.60
2019-04-07T20:40:35.905Z,19.77
2019-04-07T20:43:10.112Z,24.63
2019-04-07T20:45:53.801Z,20.80
2019-04-07T20:48:39.950Z,19.63
2019-04-07T20:51:48.042Z,22.57
2019-04-07T20:54:23.749Z,23.43
2019-04-07T20:57:07.597Z,24.70
2019-04-07T20:59:54.182Z,21.80
2019-04-07T21:02:48.723Z,23.50
2019-04-07T21:05:38.221Z,21.40
2019-04-07T21:08:39.977Z,25.63
2019-04-07T21:11:31.058Z,23.93
2019-04-07T21:14:16.320Z,29.47
2019-04-07T21:17:08.505Z,25.07
2019-04-07T21:19:57.521Z,26.27
2019-04-07T21:23:05.229Z,23.70
2019-04-07T21:25:56.029Z,24.80
2019-04-07T21:28:48.966Z,24.23
2019-04-07T21:31:38.492Z,23.93
2019-04-07T21:34:21.239Z,21.43
2019-04-07T21:37:02.508Z,23.27
2019-04-07T21:39:51.618Z,33.23
2019-04-07T21:42:54.092Z,28.43
2019-04-07T21:45:43.671Z,22.17
2019-04-07T21:48:18.150Z,23.40
2019-04-07T21:50:55.110Z,22.93
2019-04-07T21:53:34.711Z,24.47
2019-04-07T21:56:26.933Z,27.73
2019-04-07T21:59:26.741Z,23.23
2019-04-07T22:02:33.433Z,31.43
2019-04-07T22:05:37.059Z,26.50
2019-04-07T22:08:15.977Z,21.10
2019-04-07T22:10:47.886Z,20.63
2019-04-07T22:13:19.537Z,23.40
2019-04-07T22:15:56.251Z,24.87
2019-04-07T22:18:23.660Z,25.13
2019-04-07T22:20:56.059Z,32.53
2019-04-07T22:23:29.512Z,24.00
2019-04-07T22:25:59.147Z,27.80
2019-04-07T22:28:30.355Z,27.03
2019-04-07T22:31:02.009Z,30.90
2019-04-07T22:33:33.747Z,24.33
2019-04-07T22:36:05.863Z,27.20
2019-04-07T22:38:36.433Z,24.57
2019-04-07T22:41:08.865Z,26.03
2019-04-07T22:43:39.506Z,23.90
2019-04-07T22:46:17.568Z,24.17
2019-04-07T22:48:42.349Z,28.60
2019-04-07T22:51:13.742Z,21.70
2019-04-07T22:53:45.483Z,25.03
2019-04-07T22:56:16.140Z,22.20
2019-04-07T22:58:46.691Z,24.63
2019-04-07T23:01:17.287Z,23.60
2019-04-07T23:03:47.828Z,26.60
2019-04-07T23:06:18.969Z,22.43
2019-04-07T23:08:49.802Z,23.37
2019-04-07T23:11:22.524Z,24.23
2019-04-07T23:13:53.393Z,24.10
2019-04-07T23:16:24.493Z,24.50
2019-04-07T23:18:55.075Z,26.30
2019-04-07T23:21:26.645Z,25.33
2019-04-07T23:23:57.711Z,28.80
2019-04-07T23:26:28.628Z,25.57
2019-04-07T23:28:59.244Z,28.50
2019-04-07T23:31:32.045Z,25.17
2019-04-07T23:34:02.884Z,22.83
2019-04-07T23:36:34.042Z,18.20
2019-04-07T23:39:08.715Z,22.83
2019-04-07T23:41:39.450Z,21.30
2019-04-07T23:44:10.052Z,25.33
2019-04-07T23:46:41.392Z,27.00
2019-04-07T23:49:13.083Z,25.47
2019-04-07T23:51:43.764Z,25.40
2019-04-07T23:54:18.365Z,25.00
2019-04-07T23:56:49.861Z,23.13
2019-04-07T23:59:20.729Z,24.37
